Time;durP1;ratioP1;P1;durP2;ratioP2;P2;SDS_P1;SDS_P2;PMS_P1;PMS_P2;Temp;Humidity;BMP_temperature;BMP_pressure;BME280_temperature;BME280_humidity;BME280_pressure;Samples;Min_cycle;Max_cycle;Signal;HPM_P1;HPM_P2
2021/10/18 00:01:49;;;;;;;;;;;;;;;;;;5113201;28;20401;-72
2021/10/18 00:04:16;;;;;;;;;;;;;;;;;;5113189;28;19924;-72
2021/10/18 00:06:42;;;;;;;;;;;;;;;;;;5113474;28;19923;-72
2021/10/18 00:09:08;;;;;;;;;;;;;;;;;;5112739;28;19924;-72
2021/10/18 00:11:34;;;;;;;;;;;;;;;;;;5113124;28;19927;-72
2021/10/18 00:14:01;;;;;;;;;;;;;;;;;;5113109;28;20290;-72
2021/10/18 00:16:27;;;;;;;;;;;;;;;;;;5112803;28;19931;-72
2021/10/18 00:18:53;;;;;;;;;;;;;;;;;;5113421;28;19924;-73
2021/10/18 00:21:20;;;;;;;;;;;;;;;;;;5112664;28;19930;-72
2021/10/18 00:23:46;;;;;;;;;;;;;;;;;;5113302;28;19924;-72
2021/10/18 00:26:12;;;;;;;;;;;;;;;;;;5112539;28;20386;-72
2021/10/18 00:28:39;;;;;;;;;;;;;;;;;;5112818;28;19924;-72
2021/10/18 00:31:05;;;;;;;;;;;;;;;;;;5113020;28;19935;-73
2021/10/18 00:33:31;;;;;;;;;;;;;;;;;;5112720;28;20290;-72
2021/10/18 00:35:57;;;;;;;;;;;;;;;;;;5117162;28;19939;-72
2021/10/18 00:38:24;;;;;;;;;;;;;;;;;;5116702;28;20293;-72
2021/10/18 00:40:50;;;;;;;;;;;;;;;;;;5117051;28;19931;-72
2021/10/18 00:43:16;;;;;;;;;;;;;;;;;;5116874;28;19924;-72
2021/10/18 00:45:43;;;;;;;;;;;;;;;;;;5116884;28;20342;-72
2021/10/18 00:48:09;;;;;;;;;;;;;;;;;;5117073;28;19931;-72
2021/10/18 00:50:35;;;;;;;;;;;;;;;;;;5117203;28;20303;-72
2021/10/18 00:53:02;;;;;;;;;;;;;;;;;;5116772;28;19927;-72
2021/10/18 00:55:28;;;;;;;;;;;;;;;;;;5116691;28;19940;-72
2021/10/18 00:57:54;;;;;;;;;;;;;;;;;;5116421;28;20378;-72
2021/10/18 01:00:20;;;;;;;;;;;;;;;;;;5117029;28;19924;-72
2021/10/18 01:02:47;;;;;;;;;;;;;;;;;;5116736;28;19931;-72
2021/10/18 01:05:14;;;;;;;;;;;;;;;;;;5116697;28;19930;-72
2021/10/18 01:07:40;;;;;;;;;;;;;;;;;;5116839;28;19924;-73
2021/10/18 01:10:07;;;;;;;;;;;;;;;;;;5116432;28;20290;-72
2021/10/18 01:12:33;;;;;;;;;;;;;;;;;;5116494;28;19930;-72
2021/10/18 01:14:59;;;;;;;;;;;;;;;;;;5116672;28;19923;-72
2021/10/18 01:17:25;;;;;;;;;;;;;;;;;;5116041;28;19931;-72
2021/10/18 01:19:52;;;;;;;;;;;;;;;;;;5116436;28;19924;-72
2021/10/18 01:22:18;;;;;;;;;;;;;;;;;;5115942;28;20393;-72
2021/10/18 01:24:44;;;;;;;;;;;;;;;;;;5116436;28;19923;-72
2021/10/18 01:27:11;;;;;;;;;;;;;;;;;;5116097;28;20318;-72
2021/10/18 01:29:37;;;;;;;;;;;;;;;;;;5116004;28;19924;-72
2021/10/18 01:32:03;;;;;;;;;;;;;;;;;;5116231;28;19924;-72
2021/10/18 01:34:30;;;;;;;;;;;;;;;;;;5116008;28;19924;-72
2021/10/18 01:36:56;;;;;;;;;;;;;;;;;;5115985;28;19935;-73
2021/10/18 01:39:22;;;;;;;;;;;;;;;;;;5115614;28;20449;-73
2021/10/18 01:41:48;;;;;;;;;;;;;;;;;;5115609;28;19924;-72
2021/10/18 01:44:15;;;;;;;;;;;;;;;;;;5116115;28;19930;-72
2021/10/18 01:46:41;;;;;;;;;;;;;;;;;;5114325;28;20370;-72
2021/10/18 01:49:08;;;;;;;;;;;;;;;;;;5115485;28;19934;-72
2021/10/18 01:51:34;;;;;;;;;;;;;;;;;;5115782;28;19924;-72
2021/10/18 01:54:00;;;;;;;;;;;;;;;;;;5115610;28;19924;-72
2021/10/18 01:56:27;;;;;;;;;;;;;;;;;;5115559;28;19927;-72
2021/10/18 01:58:53;;;;;;;;;;;;;;;;;;5115152;28;20412;-72
2021/10/18 02:01:19;;;;;;;;;;;;;;;;;;5115532;28;19924;-71
2021/10/18 02:03:45;;;;;;;;;;;;;;;;;;5115742;28;19931;-71
2021/10/18 02:06:12;;;;;;;;;;;;;;;;;;5115226;28;20436;-72
2021/10/18 02:08:38;;;;;;;;;;;;;;;;;;5115334;28;19931;-71
2021/10/18 02:11:04;;;;;;;;;;;;;;;;;;5115445;28;20286;-71
2021/10/18 02:13:31;;;;;;;;;;;;;;;;;;5115177;28;19924;-72
2021/10/18 02:15:57;;;;;;;;;;;;;;;;;;5115475;28;19938;-72
2021/10/18 02:18:23;;;;;;;;;;;;;;;;;;5114953;28;19924;-72
2021/10/18 02:20:49;;;;;;;;;;;;;;;;;;5115289;28;20378;-73
2021/10/18 02:23:16;;;;;;;;;;;;;;;;;;5114809;28;19927;-70
2021/10/18 02:25:42;;;;;;;;;;;;;;;;;;5115203;28;19924;-71
2021/10/18 02:28:08;;;;;;;;;;;;;;;;;;5114612;28;19924;-71
2021/10/18 02:30:35;;;;;;;;;;;;;;;;;;5115235;28;19931;-72
2021/10/18 02:33:01;;;;;;;;;;;;;;;;;;5114702;28;20370;-71
2021/10/18 02:35:27;;;;;;;;;;;;;;;;;;5114523;28;19924;-71
2021/10/18 02:37:54;;;;;;;;;;;;;;;;;;5115025;28;19923;-71
2021/10/18 02:40:20;;;;;;;;;;;;;;;;;;5114465;28;19924;-71
2021/10/18 02:42:46;;;;;;;;;;;;;;;;;;5114994;28;19934;-73
2021/10/18 02:45:12;;;;;;;;;;;;;;;;;;5114271;28;20266;-71
2021/10/18 02:47:39;;;;;;;;;;;;;;;;;;5114636;28;19924;-71
2021/10/18 02:50:05;;;;;;;;;;;;;;;;;;5114772;28;19923;-73
2021/10/18 02:52:31;;;;;;;;;;;;;;;;;;5114515;28;20289;-71
2021/10/18 02:54:58;;;;;;;;;;;;;;;;;;5114315;28;19924;-71
2021/10/18 02:57:24;;;;;;;;;;;;;;;;;;5113926;28;19924;-70
2021/10/18 02:59:50;;;;;;;;;;;;;;;;;;5114432;28;19931;-71
2021/10/18 03:02:17;;;;;;;;;;;;;;;;;;5114290;28;19934;-71
2021/10/18 03:04:44;;;;;;;;;;;;;;;;;;5114425;28;19931;-71
2021/10/18 03:07:10;;;;;;;;;;;;;;;;;;5114269;28;19939;-71
2021/10/18 03:09:36;;;;;;;;;;;;;;;;;;5114162;28;19934;-71
2021/10/18 03:12:03;;;;;;;;;;;;;;;;;;5114240;28;19927;-72
2021/10/18 03:14:29;;;;;;;;;;;;;;;;;;5113683;28;20420;-72
2021/10/18 03:16:55;;;;;;;;;;;;;;;;;;5114038;28;19931;-71
2021/10/18 03:19:21;;;;;;;;;;;;;;;;;;5114047;28;19930;-72
2021/10/18 03:21:48;;;;;;;;;;;;;;;;;;5113893;28;19923;-71
2021/10/18 03:24:14;;;;;;;;;;;;;;;;;;5113775;28;19944;-71
2021/10/18 03:26:40;;;;;;;;;;;;;;;;;;5114029;28;19924;-72
2021/10/18 03:29:07;;;;;;;;;;;;;;;;;;5113738;28;19928;-71
2021/10/18 03:31:33;;;;;;;;;;;;;;;;;;5113743;28;20318;-72
2021/10/18 03:33:59;;;;;;;;;;;;;;;;;;5113687;28;19924;-72
2021/10/18 03:36:25;;;;;;;;;;;;;;;;;;5113732;28;19936;-71
2021/10/18 03:38:52;;;;;;;;;;;;;;;;;;5113590;28;19924;-72
2021/10/18 03:41:18;;;;;;;;;;;;;;;;;;5113530;28;19924;-72
2021/10/18 03:43:44;;;;;;;;;;;;;;;;;;5113318;28;20282;-72
2021/10/18 03:46:11;;;;;;;;;;;;;;;;;;5113202;28;19924;-72
2021/10/18 03:48:37;;;;;;;;;;;;;;;;;;5113806;28;19927;-72
2021/10/18 03:51:03;;;;;;;;;;;;;;;;;;5113223;28;20282;-72
2021/10/18 03:53:30;;;;;;;;;;;;;;;;;;5113305;28;19928;-72
2021/10/18 03:55:56;;;;;;;;;;;;;;;;;;5113239;28;20418;-72
2021/10/18 03:58:22;;;;;;;;;;;;;;;;;;5112869;28;19930;-72
2021/10/18 04:00:48;;;;;;;;;;;;;;;;;;5113276;28;19924;-72
2021/10/18 04:03:15;;;;;;;;;;;;;;;;;;5112949;28;20381;-72
2021/10/18 04:05:41;;;;;;;;;;;;;;;;;;5113496;28;19923;-72
2021/10/18 04:08:07;;;;;;;;;;;;;;;;;;5112905;28;19951;-72
2021/10/18 04:10:34;;;;;;;;;;;;;;;;;;5112510;28;19931;-71
2021/10/18 04:13:00;;;;;;;;;;;;;;;;;;5112944;28;19924;-71
2021/10/18 04:15:26;;;;;;;;;;;;;;;;;;5112964;28;19928;-71
2021/10/18 04:17:52;;;;;;;;;;;;;;;;;;5113181;28;19924;-71
2021/10/18 04:20:19;;;;;;;;;;;;;;;;;;5112684;28;19923;-71
2021/10/18 04:22:47;;;;;;;;;;;;;;;;;;5113092;28;19924;-71
2021/10/18 04:25:13;;;;;;;;;;;;;;;;;;5112522;28;20367;-71
2021/10/18 04:27:39;;;;;;;;;;;;;;;;;;5112862;28;19931;-71
2021/10/18 04:30:05;;;;;;;;;;;;;;;;;;5112093;28;19924;-72
2021/10/18 04:32:32;;;;;;;;;;;;;;;;;;5111849;28;20528;-71
2021/10/18 04:34:58;;;;;;;;;;;;;;;;;;5112595;28;19934;-71
2021/10/18 04:37:24;;;;;;;;;;;;;;;;;;5112867;28;19931;-71
2021/10/18 04:39:51;;;;;;;;;;;;;;;;;;5112619;28;20392;-71
2021/10/18 04:42:17;;;;;;;;;;;;;;;;;;5112412;28;20010;-71
2021/10/18 04:44:43;;;;;;;;;;;;;;;;;;5112938;28;19930;-70
2021/10/18 04:47:10;;;;;;;;;;;;;;;;;;5112319;28;20396;-70
2021/10/18 04:49:36;;;;;;;;;;;;;;;;;;5112649;28;20101;-71
2021/10/18 04:52:02;;;;;;;;;;;;;;;;;;5112787;28;19934;-71
2021/10/18 04:54:29;;;;;;;;;;;;;;;;;;5112226;28;20296;-71
2021/10/18 04:56:55;;;;;;;;;;;;;;;;;;5112538;28;19930;-72
2021/10/18 04:59:21;;;;;;;;;;;;;;;;;;5112250;28;19924;-72
2021/10/18 05:01:47;;;;;;;;;;;;;;;;;;5112239;28;20374;-71
2021/10/18 05:04:14;;;;;;;;;;;;;;;;;;5112305;28;19924;-71
2021/10/18 05:06:40;;;;;;;;;;;;;;;;;;5112756;28;20045;-72
2021/10/18 05:09:07;;;;;;;;;;;;;;;;;;5112280;28;20367;-72
2021/10/18 05:11:33;;;;;;;;;;;;;;;;;;5112765;28;19931;-72
2021/10/18 05:13:59;;;;;;;;;;;;;;;;;;5112271;28;20405;-71
2021/10/18 05:16:26;;;;;;;;;;;;;;;;;;5112133;28;19927;-72
2021/10/18 05:18:52;;;;;;;;;;;;;;;;;;5112569;28;19924;-72
2021/10/18 05:21:18;;;;;;;;;;;;;;;;;;5114763;28;19924;-72
2021/10/18 05:23:44;;;;;;;;;;;;;;;;;;5116597;28;19923;-72
2021/10/18 05:26:11;;;;;;;;;;;;;;;;;;5116201;28;19924;-72
2021/10/18 05:28:37;;;;;;;;;;;;;;;;;;5116120;28;19924;-72
2021/10/18 05:31:03;;;;;;;;;;;;;;;;;;5115574;28;19924;-72
2021/10/18 05:33:30;;;;;;;;;;;;;;;;;;5115313;28;19928;-72
2021/10/18 05:35:56;;;;;;;;;;;;;;;;;;5115962;28;19931;-72
2021/10/18 05:38:22;;;;;;;;;;;;;;;;;;5115985;28;19923;-72
2021/10/18 05:40:48;;;;;;;;;;;;;;;;;;5115821;28;20294;-72
2021/10/18 05:43:15;;;;;;;;;;;;;;;;;;5115475;28;19924;-72
2021/10/18 05:45:41;;;;;;;;;;;;;;;;;;5115986;28;19924;-72
2021/10/18 05:48:07;;;;;;;;;;;;;;;;;;5115454;28;19923;-72
2021/10/18 05:50:34;;;;;;;;;;;;;;;;;;5115958;28;19931;-72
2021/10/18 05:53:00;;;;;;;;;;;;;;;;;;5115842;28;20283;-72
2021/10/18 05:55:26;;;;;;;;;;;;;;;;;;5115257;28;19923;-72
2021/10/18 05:57:53;;;;;;;;;;;;;;;;;;5115555;28;19924;-72
2021/10/18 06:00:19;;;;;;;;;;;;;;;;;;5115269;28;19931;-72
2021/10/18 06:02:45;;;;;;;;;;;;;;;;;;5115806;28;19924;-72
2021/10/18 06:05:11;;;;;;;;;;;;;;;;;;5115469;28;20018;-72
2021/10/18 06:07:38;;;;;;;;;;;;;;;;;;5115392;28;20271;-72
2021/10/18 06:10:04;;;;;;;;;;;;;;;;;;5115262;28;19930;-72
2021/10/18 06:12:30;;;;;;;;;;;;;;;;;;5115243;28;19927;-72
2021/10/18 06:14:57;;;;;;;;;;;;;;;;;;5115538;28;20286;-72
2021/10/18 06:17:23;;;;;;;;;;;;;;;;;;5114867;28;19924;-71
2021/10/18 06:19:49;;;;;;;;;;;;;;;;;;5115434;28;19924;-72
2021/10/18 06:22:16;;;;;;;;;;;;;;;;;;5114795;28;19931;-71
2021/10/18 06:24:42;;;;;;;;;;;;;;;;;;5115430;28;19924;-72
2021/10/18 06:27:09;;;;;;;;;;;;;;;;;;5114645;28;20251;-71
2021/10/18 06:29:36;;;;;;;;;;;;;;;;;;5115256;28;19930;-71
2021/10/18 06:32:02;;;;;;;;;;;;;;;;;;5114403;28;20289;-72
2021/10/18 06:34:28;;;;;;;;;;;;;;;;;;5114487;28;19930;-72
2021/10/18 06:36:55;;;;;;;;;;;;;;;;;;5115098;28;19924;-71
2021/10/18 06:39:21;;;;;;;;;;;;;;;;;;5114547;28;19927;-71
2021/10/18 06:41:47;;;;;;;;;;;;;;;;;;5115067;28;19924;-72
2021/10/18 06:44:14;;;;;;;;;;;;;;;;;;5114711;28;19987;-72
2021/10/18 06:46:40;;;;;;;;;;;;;;;;;;5114418;28;19923;-72
2021/10/18 06:49:06;;;;;;;;;;;;;;;;;;5114602;28;19923;-72
2021/10/18 06:51:35;;;;;;;;;;;;;;;;;;5114421;28;20286;-71
2021/10/18 06:54:03;;;;;;;;;;;;;;;;;;5114175;28;19942;-72
2021/10/18 06:56:29;;;;;;;;;;;;;;;;;;5114530;28;19959;-72
2021/10/18 06:58:55;;;;;;;;;;;;;;;;;;5114391;28;19924;-72
2021/10/18 07:01:22;;;;;;;;;;;;;;;;;;5114042;28;20289;-71
2021/10/18 07:03:48;;;;;;;;;;;;;;;;;;5114260;28;19934;-72
2021/10/18 07:06:14;;;;;;;;;;;;;;;;;;5114185;28;19924;-71
2021/10/18 07:08:40;;;;;;;;;;;;;;;;;;5114118;28;19931;-71
2021/10/18 07:11:07;;;;;;;;;;;;;;;;;;5114158;28;19938;-71
2021/10/18 07:13:33;;;;;;;;;;;;;;;;;;5114280;28;19930;-72
2021/10/18 07:15:59;;;;;;;;;;;;;;;;;;5113924;28;19930;-72
2021/10/18 07:18:27;;;;;;;;;;;;;;;;;;5113728;28;20026;-71
2021/10/18 07:20:54;;;;;;;;;;;;;;;;;;5113823;28;20374;-71
2021/10/18 07:23:20;;;;;;;;;;;;;;;;;;5113652;28;19931;-72
2021/10/18 07:25:47;;;;;;;;;;;;;;;;;;5114035;28;19924;-71
2021/10/18 07:28:15;;;;;;;;;;;;;;;;;;5113379;28;20382;-71
2021/10/18 07:30:43;;;;;;;;;;;;;;;;;;5113726;28;19976;-71
2021/10/18 07:33:09;;;;;;;;;;;;;;;;;;5113432;28;19923;-72
2021/10/18 07:35:36;;;;;;;;;;;;;;;;;;5113906;28;19927;-72
2021/10/18 07:38:04;;;;;;;;;;;;;;;;;;5113848;28;19927;-71
2021/10/18 07:40:30;;;;;;;;;;;;;;;;;;5113644;28;19924;-72
2021/10/18 07:42:57;;;;;;;;;;;;;;;;;;5113495;28;20401;-71
2021/10/18 07:45:23;;;;;;;;;;;;;;;;;;5114082;28;19930;-71
2021/10/18 07:47:49;;;;;;;;;;;;;;;;;;5113872;28;19924;-71
2021/10/18 07:50:16;;;;;;;;;;;;;;;;;;5113616;28;20297;-72
2021/10/18 07:52:42;;;;;;;;;;;;;;;;;;5113249;28;19935;-71
2021/10/18 07:55:13;;;;;;;;;;;;;;;;;;5113391;28;19930;-72
2021/10/18 07:57:39;;;;;;;;;;;;;;;;;;5113170;28;19924;-70
2021/10/18 08:00:05;;;;;;;;;;;;;;;;;;5113491;28;19924;-71
2021/10/18 08:02:32;;;;;;;;;;;;;;;;;;5113464;28;19934;-71
2021/10/18 08:04:58;;;;;;;;;;;;;;;;;;5113087;28;20432;-71
2021/10/18 08:07:27;;;;;;;;;;;;;;;;;;5113008;28;19924;-71
2021/10/18 08:09:54;;;;;;;;;;;;;;;;;;5113097;28;20382;-71
2021/10/18 08:12:20;;;;;;;;;;;;;;;;;;5113210;28;19924;-71
2021/10/18 08:14:46;;;;;;;;;;;;;;;;;;5113216;28;19924;-71
2021/10/18 08:17:12;;;;;;;;;;;;;;;;;;5112845;28;19931;-71
2021/10/18 08:19:39;;;;;;;;;;;;;;;;;;5113090;28;19931;-70
2021/10/18 08:22:05;;;;;;;;;;;;;;;;;;5113230;28;20293;-71
2021/10/18 08:24:31;;;;;;;;;;;;;;;;;;5113015;28;19931;-71
2021/10/18 08:26:58;;;;;;;;;;;;;;;;;;5113117;28;19924;-73
2021/10/18 08:29:24;;;;;;;;;;;;;;;;;;5112691;28;20417;-71
2021/10/18 08:31:50;;;;;;;;;;;;;;;;;;5113187;28;19923;-71
2021/10/18 08:34:17;;;;;;;;;;;;;;;;;;5112543;28;19924;-70
2021/10/18 08:36:43;;;;;;;;;;;;;;;;;;5112825;28;19924;-71
2021/10/18 08:41:56;;;;;;;;;;;;;;;;;;5112832;28;19919;-71
2021/10/18 08:44:22;;;;;;;;;;;;;;;;;;5112714;28;19977;-71
2021/10/18 08:46:49;;;;;;;;;;;;;;;;;;5112668;28;19924;-70
2021/10/18 08:49:15;;;;;;;;;;;;;;;;;;5112417;28;19950;-72
2021/10/18 08:51:41;;;;;;;;;;;;;;;;;;5112876;28;19924;-72
2021/10/18 08:54:09;;;;;;;;;;;;;;;;;;5112206;28;19931;-72
2021/10/18 08:56:36;;;;;;;;;;;;;;;;;;5115870;28;20517;-71
2021/10/18 08:59:02;;;;;;;;;;;;;;;;;;5116740;28;19930;-71
2021/10/18 09:01:28;;;;;;;;;;;;;;;;;;5116967;28;19931;-71
2021/10/18 09:03:54;;;;;;;;;;;;;;;;;;5116538;28;20370;-71
2021/10/18 09:06:21;;;;;;;;;;;;;;;;;;5116429;28;19924;-72
2021/10/18 09:08:48;;;;;;;;;;;;;;;;;;5116697;28;19923;-72
2021/10/18 09:11:14;;;;;;;;;;;;;;;;;;5116560;28;20297;-72
2021/10/18 09:13:41;;;;;;;;;;;;;;;;;;5116299;28;19923;-72
2021/10/18 09:16:10;;;;;;;;;;;;;;;;;;5116484;28;19924;-72
2021/10/18 09:18:37;;;;;;;;;;;;;;;;;;5116517;28;20010;-72
2021/10/18 09:21:03;;;;;;;;;;;;;;;;;;5116226;28;20414;-72
2021/10/18 09:23:32;;;;;;;;;;;;;;;;;;5115900;28;19939;-71
2021/10/18 09:25:58;;;;;;;;;;;;;;;;;;5116251;28;19931;-71
2021/10/18 09:28:24;;;;;;;;;;;;;;;;;;5115828;28;19930;-72
2021/10/18 09:30:51;;;;;;;;;;;;;;;;;;5116072;28;19923;-71
2021/10/18 09:33:20;;;;;;;;;;;;;;;;;;5116348;28;19923;-71
2021/10/18 09:35:46;;;;;;;;;;;;;;;;;;5116328;28;19931;-71
2021/10/18 09:38:12;;;;;;;;;;;;;;;;;;5115881;28;19924;-72
2021/10/18 09:40:40;;;;;;;;;;;;;;;;;;5116181;28;19931;-72
2021/10/18 09:43:11;;;;;;;;;;;;;;;;;;5115695;28;20363;-72
2021/10/18 09:45:38;;;;;;;;;;;;;;;;;;5115815;28;19930;-71
2021/10/18 10:51:33;;;;;;;;;;;;;;;;;;5051575;28;20522;-71
2021/10/18 10:54:02;;;;;;;;;;;;;;;;;;5051403;28;19932;-71
2021/10/18 10:56:28;;;;;;;;;;;;;;;;;;5108717;28;19931;-70
2021/10/18 10:58:54;;;;;;;;;;;;;;;;;;5114326;28;19938;-72
2021/10/18 11:01:21;;;;;;;;;;;;;;;;;;5114368;28;19924;-72
2021/10/18 11:03:47;;;;;;;;;;;;;;;;;;5114312;28;19931;-71
2021/10/18 11:06:13;;;;;;;;;;;;;;;;;;5114190;28;19924;-71
2021/10/18 11:08:40;;;;;;;;;;;;;;;;;;5114169;28;20313;-72
2021/10/18 11:11:06;;;;;;;;;;;;;;;;;;5113806;28;19924;-72
2021/10/18 11:13:32;;;;;;;;;;;;;;;;;;5114372;28;19932;-71
2021/10/18 11:15:58;;;;;;;;;;;;;;;;;;5113976;28;19924;-72
2021/10/18 11:18:25;;;;;;;;;;;;;;;;;;5113736;28;19923;-72
2021/10/18 11:20:51;;;;;;;;;;;;;;;;;;5113809;28;20306;-71
2021/10/18 11:23:17;;;;;;;;;;;;;;;;;;5113688;28;19930;-72
2021/10/18 11:25:44;;;;;;;;;;;;;;;;;;5114175;28;19927;-72
2021/10/18 11:28:10;;;;;;;;;;;;;;;;;;5113556;28;20370;-72
2021/10/18 11:30:36;;;;;;;;;;;;;;;;;;5113600;28;19939;-71
2021/10/18 11:33:03;;;;;;;;;;;;;;;;;;5113704;28;20026;-71
2021/10/18 11:35:29;;;;;;;;;;;;;;;;;;5113525;28;19924;-71
2021/10/18 11:37:55;;;;;;;;;;;;;;;;;;5113819;28;20022;-72
2021/10/18 11:40:22;;;;;;;;;;;;;;;;;;5113346;28;20393;-71
2021/10/18 11:42:48;;;;;;;;;;;;;;;;;;5113591;28;19923;-71
2021/10/18 11:45:14;;;;;;;;;;;;;;;;;;5113652;28;19928;-71
2021/10/18 11:47:42;;;;;;;;;;;;;;;;;;5113960;28;19931;-71
2021/10/18 11:50:08;;;;;;;;;;;;;;;;;;5113043;28;20405;-71
2021/10/18 11:52:34;;;;;;;;;;;;;;;;;;5113317;28;19927;-71
2021/10/18 11:55:01;;;;;;;;;;;;;;;;;;5113546;28;19924;-72
2021/10/18 11:57:28;;;;;;;;;;;;;;;;;;5113494;28;20293;-72
2021/10/18 11:59:54;;;;;;;;;;;;;;;;;;5113022;28;19931;-71
2021/10/18 12:02:21;;;;;;;;;;;;;;;;;;5112850;28;19924;-71
2021/10/18 12:04:47;;;;;;;;;;;;;;;;;;5113139;28;19923;-72
2021/10/18 12:07:13;;;;;;;;;;;;;;;;;;5113209;28;19930;-72
2021/10/18 12:09:40;;;;;;;;;;;;;;;;;;5113123;28;20370;-71
2021/10/18 12:12:06;;;;;;;;;;;;;;;;;;5113078;28;19924;-71
2021/10/18 12:14:32;;;;;;;;;;;;;;;;;;5113410;28;19924;-71
2021/10/18 12:16:58;;;;;;;;;;;;;;;;;;5113225;28;20006;-71
2021/10/18 12:19:26;;;;;;;;;;;;;;;;;;5112613;28;19935;-71
2021/10/18 12:21:52;;;;;;;;;;;;;;;;;;5112861;28;19928;-71
2021/10/18 12:24:19;;;;;;;;;;;;;;;;;;5112992;28;19923;-71
2021/10/18 12:26:46;;;;;;;;;;;;;;;;;;5112889;28;19930;-72
2021/10/18 12:29:13;;;;;;;;;;;;;;;;;;5112162;28;19966;-72
2021/10/18 12:31:39;;;;;;;;;;;;;;;;;;5112673;28;19923;-72
2021/10/18 12:34:05;;;;;;;;;;;;;;;;;;5112690;28;19924;-72
2021/10/18 12:36:32;;;;;;;;;;;;;;;;;;5112975;28;19924;-71
2021/10/18 12:39:00;;;;;;;;;;;;;;;;;;5112748;28;19924;-71
2021/10/18 12:41:26;;;;;;;;;;;;;;;;;;5112398;28;19927;-71
2021/10/18 12:43:53;;;;;;;;;;;;;;;;;;5112967;28;19950;-71
2021/10/18 12:46:20;;;;;;;;;;;;;;;;;;5112897;28;19923;-70
2021/10/18 12:48:46;;;;;;;;;;;;;;;;;;5112519;28;19924;-71
2021/10/18 12:51:12;;;;;;;;;;;;;;;;;;5112667;28;19924;-71
2021/10/18 12:53:39;;;;;;;;;;;;;;;;;;5113053;28;19946;-70
2021/10/18 12:56:06;;;;;;;;;;;;;;;;;;5112726;28;20356;-71
2021/10/18 12:58:36;;;;;;;;;;;;;;;;;;5112709;28;19923;-71
2021/10/18 13:01:02;;;;;;;;;;;;;;;;;;5113084;28;19930;-72
2021/10/18 13:03:28;;;;;;;;;;;;;;;;;;5113002;28;19924;-72
2021/10/18 13:05:55;;;;;;;;;;;;;;;;;;5112823;28;19934;-72
2021/10/18 13:08:22;;;;;;;;;;;;;;;;;;5113300;28;19924;-71
2021/10/18 13:10:50;;;;;;;;;;;;;;;;;;5112519;28;19997;-72
2021/10/18 13:13:16;;;;;;;;;;;;;;;;;;5112423;28;20020;-72
2021/10/18 13:15:42;;;;;;;;;;;;;;;;;;5112324;28;20370;-71
2021/10/18 13:18:09;;;;;;;;;;;;;;;;;;5112157;28;19924;-71
2021/10/18 13:20:35;;;;;;;;;;;;;;;;;;5112521;28;19934;-71
2021/10/18 13:23:01;;;;;;;;;;;;;;;;;;5112508;28;19923;-71
2021/10/18 13:25:28;;;;;;;;;;;;;;;;;;5113566;28;19924;-71
2021/10/18 13:27:54;;;;;;;;;;;;;;;;;;5112589;28;19924;-72
2021/10/18 13:30:20;;;;;;;;;;;;;;;;;;5112232;28;19924;-73
2021/10/18 13:32:47;;;;;;;;;;;;;;;;;;5112196;28;19924;-72
2021/10/18 13:35:13;;;;;;;;;;;;;;;;;;5111817;28;19924;-71
2021/10/18 13:37:39;;;;;;;;;;;;;;;;;;5112530;28;20006;-71
2021/10/18 13:40:05;;;;;;;;;;;;;;;;;;5112033;28;20271;-71
2021/10/18 13:42:32;;;;;;;;;;;;;;;;;;5114779;28;19930;-71
2021/10/18 13:44:58;;;;;;;;;;;;;;;;;;5116084;28;19931;-71
2021/10/18 13:47:24;;;;;;;;;;;;;;;;;;5115973;28;19924;-71
2021/10/18 13:49:51;;;;;;;;;;;;;;;;;;5115687;28;19924;-71
2021/10/18 13:52:17;;;;;;;;;;;;;;;;;;5115503;28;19924;-71
2021/10/18 13:54:43;;;;;;;;;;;;;;;;;;5115709;28;19930;-71
2021/10/18 13:57:10;;;;;;;;;;;;;;;;;;5115460;28;19931;-71
2021/10/18 13:59:37;;;;;;;;;;;;;;;;;;5115509;28;19927;-71
2021/10/18 14:02:03;;;;;;;;;;;;;;;;;;5116639;28;19955;-71
2021/10/18 14:04:29;;;;;;;;;;;;;;;;;;5115648;28;19924;-71
2021/10/18 14:06:56;;;;;;;;;;;;;;;;;;5115273;28;20297;-71
2021/10/18 14:09:22;;;;;;;;;;;;;;;;;;5115103;28;19931;-71
2021/10/18 14:11:48;;;;;;;;;;;;;;;;;;5115545;28;19924;-71
2021/10/18 14:14:15;;;;;;;;;;;;;;;;;;5115189;28;19924;-71
2021/10/18 14:16:41;;;;;;;;;;;;;;;;;;5115006;28;20396;-71
2021/10/18 14:19:07;;;;;;;;;;;;;;;;;;5114985;28;19924;-71
2021/10/18 14:21:34;;;;;;;;;;;;;;;;;;5115329;28;19931;-71
2021/10/18 14:24:00;;;;;;;;;;;;;;;;;;5115118;28;20374;-71
2021/10/18 14:26:26;;;;;;;;;;;;;;;;;;5114670;28;19931;-71
2021/10/18 14:28:52;;;;;;;;;;;;;;;;;;5115117;28;19973;-71
2021/10/18 14:31:19;;;;;;;;;;;;;;;;;;5114655;28;19925;-71
2021/10/18 14:33:45;;;;;;;;;;;;;;;;;;5115199;28;19924;-71
2021/10/18 14:36:11;;;;;;;;;;;;;;;;;;5114373;28;20394;-71
2021/10/18 14:38:38;;;;;;;;;;;;;;;;;;5114711;28;19923;-71
2021/10/18 14:41:04;;;;;;;;;;;;;;;;;;5115007;28;19931;-71
2021/10/18 14:43:30;;;;;;;;;;;;;;;;;;5114365;28;20267;-71
2021/10/18 14:45:57;;;;;;;;;;;;;;;;;;5114502;28;19928;-71
2021/10/18 14:48:23;;;;;;;;;;;;;;;;;;5114563;28;19930;-71
2021/10/18 14:50:50;;;;;;;;;;;;;;;;;;5114549;28;19924;-71
2021/10/18 14:53:16;;;;;;;;;;;;;;;;;;5113979;28;19928;-71
2021/10/18 14:55:42;;;;;;;;;;;;;;;;;;5114584;28;19923;-72
2021/10/18 14:58:08;;;;;;;;;;;;;;;;;;5113887;28;19968;-71
2021/10/18 15:00:35;;;;;;;;;;;;;;;;;;5114570;28;19930;-72
2021/10/18 15:03:01;;;;;;;;;;;;;;;;;;5114588;28;19930;-71
2021/10/18 15:05:27;;;;;;;;;;;;;;;;;;5113872;28;20297;-71
2021/10/18 15:07:54;;;;;;;;;;;;;;;;;;5114069;28;19934;-71
2021/10/18 15:10:25;;;;;;;;;;;;;;;;;;5113659;28;20124;-72
2021/10/18 15:12:51;;;;;;;;;;;;;;;;;;5114326;28;20015;-72
2021/10/18 15:15:19;;;;;;;;;;;;;;;;;;5113868;28;20306;-72
2021/10/18 15:17:45;;;;;;;;;;;;;;;;;;5114157;27;20366;-72
2021/10/18 15:20:12;;;;;;;;;;;;;;;;;;5113958;28;19931;-73
2021/10/18 15:22:39;;;;;;;;;;;;;;;;;;5113879;28;19924;-72
2021/10/18 15:25:05;;;;;;;;;;;;;;;;;;5113987;28;19972;-72
2021/10/18 15:27:32;;;;;;;;;;;;;;;;;;5113791;28;19924;-70
2021/10/18 15:29:58;;;;;;;;;;;;;;;;;;5113997;28;19923;-69
2021/10/18 15:32:24;;;;;;;;;;;;;;;;;;5113418;28;19930;-69
2021/10/18 15:34:51;;;;;;;;;;;;;;;;;;5113424;28;19924;-71
2021/10/18 15:37:17;;;;;;;;;;;;;;;;;;5113477;28;20014;-68
2021/10/18 15:39:43;;;;;;;;;;;;;;;;;;5113586;28;19931;-69
2021/10/18 15:42:10;;;;;;;;;;;;;;;;;;5113721;28;19931;-69
2021/10/18 15:44:36;;;;;;;;;;;;;;;;;;5113744;28;20014;-68
2021/10/18 15:47:02;;;;;;;;;;;;;;;;;;5113444;28;19924;-69
2021/10/18 15:49:29;;;;;;;;;;;;;;;;;;5113499;28;19923;-68
2021/10/18 15:51:55;;;;;;;;;;;;;;;;;;5113324;28;20274;-69
2021/10/18 15:54:21;;;;;;;;;;;;;;;;;;5113112;28;19924;-69
2021/10/18 15:56:47;;;;;;;;;;;;;;;;;;5113656;28;19924;-69
2021/10/18 15:59:14;;;;;;;;;;;;;;;;;;5112954;28;20366;-69
2021/10/18 16:01:40;;;;;;;;;;;;;;;;;;5113215;28;19930;-69
2021/10/18 16:04:07;;;;;;;;;;;;;;;;;;5113082;28;19927;-68
2021/10/18 16:06:33;;;;;;;;;;;;;;;;;;5112378;28;19923;-69
2021/10/18 16:08:59;;;;;;;;;;;;;;;;;;5113507;28;19930;-68
2021/10/18 16:11:26;;;;;;;;;;;;;;;;;;5112777;28;20286;-69
2021/10/18 16:13:52;;;;;;;;;;;;;;;;;;5113176;28;19930;-69
2021/10/18 16:16:18;;;;;;;;;;;;;;;;;;5112868;28;19931;-69
2021/10/18 16:18:45;;;;;;;;;;;;;;;;;;5112967;28;19923;-69
2021/10/18 16:21:12;;;;;;;;;;;;;;;;;;5113086;28;19924;-71
2021/10/18 16:23:38;;;;;;;;;;;;;;;;;;5112942;28;20301;-71
2021/10/18 16:26:04;;;;;;;;;;;;;;;;;;5112833;28;19928;-70
2021/10/18 16:28:30;;;;;;;;;;;;;;;;;;5113040;28;20031;-71
2021/10/18 16:30:57;;;;;;;;;;;;;;;;;;5113142;28;19962;-71
2021/10/18 16:33:24;;;;;;;;;;;;;;;;;;5113007;28;19931;-71
2021/10/18 16:35:51;;;;;;;;;;;;;;;;;;5112895;28;20397;-71
2021/10/18 16:38:18;;;;;;;;;;;;;;;;;;5111242;28;20281;-71
2021/10/18 16:40:44;;;;;;;;;;;;;;;;;;5112720;28;19924;-70
2021/10/18 16:43:10;;;;;;;;;;;;;;;;;;5112746;28;19930;-71
2021/10/18 16:45:36;;;;;;;;;;;;;;;;;;5112733;28;20534;-71
2021/10/18 16:48:03;;;;;;;;;;;;;;;;;;5112723;28;19924;-71
2021/10/18 16:50:29;;;;;;;;;;;;;;;;;;5112776;28;19923;-71
2021/10/18 16:52:55;;;;;;;;;;;;;;;;;;5112885;28;19924;-71
2021/10/18 16:55:22;;;;;;;;;;;;;;;;;;5112309;28;19923;-71
2021/10/18 16:57:48;;;;;;;;;;;;;;;;;;5112762;28;19930;-70
2021/10/18 17:00:15;;;;;;;;;;;;;;;;;;5112745;28;19924;-71
2021/10/18 17:02:42;;;;;;;;;;;;;;;;;;5112437;28;19931;-71
2021/10/18 17:05:08;;;;;;;;;;;;;;;;;;5112688;28;19931;-71
2021/10/18 17:07:34;;;;;;;;;;;;;;;;;;5112942;28;19924;-71
2021/10/18 17:10:02;;;;;;;;;;;;;;;;;;5112556;28;20317;-71
2021/10/18 17:12:29;;;;;;;;;;;;;;;;;;5092144;28;19924;-72
2021/10/18 17:14:55;;;;;;;;;;;;;;;;;;5091994;28;19924;-71
2021/10/18 17:17:21;;;;;;;;;;;;;;;;;;5095134;28;19924;-71
2021/10/18 17:19:48;;;;;;;;;;;;;;;;;;5096248;28;19924;-71
2021/10/18 17:22:14;;;;;;;;;;;;;;;;;;5095909;28;19924;-71
2021/10/18 17:24:40;;;;;;;;;;;;;;;;;;5096130;28;19930;-71
2021/10/18 17:27:08;;;;;;;;;;;;;;;;;;5096313;28;19946;-72
2021/10/18 17:29:34;;;;;;;;;;;;;;;;;;5096125;28;20014;-71
2021/10/18 17:32:01;;;;;;;;;;;;;;;;;;5095851;28;20290;-72
2021/10/18 17:34:31;;;;;;;;;;;;;;;;;;5095811;28;19943;-71
2021/10/18 17:36:57;;;;;;;;;;;;;;;;;;5095565;28;19981;-71
2021/10/18 17:39:24;;;;;;;;;;;;;;;;;;5095583;28;19924;-71
2021/10/18 17:41:50;;;;;;;;;;;;;;;;;;5095895;28;20011;-71
2021/10/18 17:44:17;;;;;;;;;;;;;;;;;;5096082;28;20408;-72
2021/10/18 17:46:44;;;;;;;;;;;;;;;;;;5116076;28;19924;-71